Flight Track Log - Related Links

Times and Time Zones

All times are in EDT time to prevent confusion due to time zone crossing. See the SWA2596 flight status page for this flight to view local times or setup timezone preferences in your user account.

Time Position Orientation Groundspeed Altitude Reporting Facility
EDT Latitude Longitude Course Direction KTS MPH feet Rate Location/Type
Fri 05:16:15 PM 38.7500 -121.5667 38° Northeast 219 252 2,800  Level Northern Cal TRACON
Fri 05:18:00 PM 38.7611 -121.4303 84° East 262 302 6,800 2,766 Climbing Oakland Center
Fri 05:19:02 PM 38.7181 -121.3258 118° Southeast 300 345 10,500 3,000 Climbing Oakland Center
Fri 05:20:04 PM 38.6553 -121.2419 134° Southeast 330 380 13,000 2,732 Climbing Oakland Center
Fri 05:21:05 PM 38.5781 -121.1386 134° Southeast 372 428 16,100 3,122 Climbing Oakland Center
Fri 05:22:07 PM 38.5006 -121.0361 134° Southeast 392 451 19,400 2,758 Climbing Oakland Center
Fri 05:23:09 PM 38.4214 -120.9311 134° Southeast 402 463 21,800 2,244 Climbing Oakland Center
Fri 05:24:10 PM 38.3350 -120.8186 134° Southeast 428 493 24,000 2,244 Climbing Oakland Center
Fri 05:25:12 PM 38.2461 -120.7008 134° Southeast 453 521 26,400 2,226 Climbing Oakland Center
Fri 05:26:14 PM 38.1453 -120.5967 141° Southeast 464 534 28,600 1,984 Climbing Oakland Center
Fri 05:27:16 PM 38.0403 -120.4969 143° Southeast 471 542 30,500 2,000 Climbing Oakland Center
Fri 05:28:17 PM 37.9358 -120.3947 142° Southeast 475 547 32,700 2,049 Climbing Oakland Center
Fri 05:29:19 PM 37.8125 -120.2725 142° Southeast 468 539 34,700 1,790 Climbing Oakland Center
Fri 05:30:21 PM 37.7081 -120.1731 143° Southeast 470 541 36,400 1,113 Climbing Oakland Center
Fri 05:31:23 PM 37.6050 -120.0731 142° Southeast 468 539 37,000 293 Climbing Oakland Center
Fri 05:32:24 PM 37.5011 -119.9753 143° Southeast 466 536 37,000  Level Oakland Center
Fri 05:33:26 PM 37.3986 -119.8764 143° Southeast 464 534 37,000  Level Oakland Center
Fri 05:34:28 PM 37.2981 -119.7897 146° Southeast 457 526 37,000  Level Oakland Center
Fri 05:35:29 PM 37.1539 -119.7711 174° South 434 499 37,000  Level Oakland Center
Fri 05:36:31 PM 37.0328 -119.7622 177° South 435 501 37,000  Level Oakland Center
Fri 05:37:33 PM 36.9125 -119.7542 177° South 432 497 37,000  Level Oakland Center
Fri 05:38:34 PM 36.7911 -119.7453 177° South 436 502 37,000  Level Oakland Center
Fri 05:39:36 PM 36.6683 -119.7375 177° South 439 505 37,000  Level Oakland Center
Fri 05:40:38 PM 36.5458 -119.7294 177° South 440 506 37,000  Level Oakland Center
Fri 05:41:39 PM 36.4231 -119.7197 176° South 442 509 37,000  Level Oakland Center
Fri 05:42:41 PM 36.3011 -119.7125 177° South 439 505 37,000  Level Oakland Center
Fri 05:43:43 PM 36.1547 -119.7031 177° South 437 503 37,000  Level Oakland Center
Fri 05:44:44 PM 36.0336 -119.6936 176° South 435 501 37,000  Level Oakland Center
Fri 05:45:46 PM 35.9119 -119.6864 177° South 436 502 37,000  Level Oakland Center
Fri 05:46:47 PM 35.7906 -119.6783 177° South 434 499 37,000  Level Oakland Center
Fri 05:47:49 PM 35.6683 -119.6686 176° South 437 503 37,000  Level Oakland Center
Fri 05:48:51 PM 35.5467 -119.6353 167° South 460 529 37,000 -98 Level Oakland Center
Fri 05:49:51 PM 35.4275 -119.5686 155° Southeast 467 537 36,800 -590 Descending Los Angeles Center
Fri 05:50:53 PM 35.3086 -119.5003 155° Southeast 469 540 35,800 -968 Descending Los Angeles Center
Fri 05:51:55 PM 35.1872 -119.4314 155° Southeast 474 545 34,800 -1,645 Descending Los Angeles Center
Fri 05:52:57 PM 35.0453 -119.3433 153° Southeast 477 549 32,400 -2,471 Descending Los Angeles Center
Fri 05:54:11 PM 34.9278 -119.2633 151° Southeast 481 554 29,200 -2,819 Descending Los Angeles Center
Fri 05:55:26 PM 34.7675 -119.1547 151° Southeast 471 542 25,400 -2,783 Descending Los Angeles Center
Fri 05:56:29 PM 34.6531 -119.0792 151° Southeast 455 524 22,800 -2,406 Descending Los Angeles Center
Fri 05:58:33 PM 34.4444 -118.9411 151° Southeast 415 478 17,900 -2,484 Descending Los Angeles Center
Fri 05:59:35 PM 34.3256 -118.8678 153° Southeast 397 457 15,100 -2,516 Descending Los Angeles Center
Fri 06:00:37 PM 34.2228 -118.8328 164° South 386 444 12,700 -1,935 Descending Los Angeles Center
Fri 06:01:39 PM 34.1294 -118.7844 157° South 364 419 11,100 -1,306 Descending Los Angeles Center
Fri 06:02:41 PM 34.0692 -118.6975 130° Southeast 335 386 10,000 -1,016 Descending Los Angeles Center
Fri 06:03:43 PM 34.0425 -118.5883 106° East 315 362 9,000 -1,161 Descending Los Angeles Center
Fri 06:04:45 PM 34.0178 -118.4892 107° East 308 354 7,600 -1,306 Descending Los Angeles Center
Fri 06:05:47 PM 34.0147 -118.4069 93° East 286 329 6,300 -960 Descending Los Angeles Center
Fri 06:06:50 PM 34.0239 -118.2994 84° East 270 311 5,600 -864 Descending Los Angeles Center
Fri 06:07:52 PM 34.0069 -118.2403 109° East 238 274 4,500 -1,258 Descending Los Angeles Center
Fri 06:08:54 PM 33.9675 -118.2783 219° Southwest 208 239 3,000 -1,306 Descending Los Angeles Center
Fri 06:09:56 PM 33.9592 -118.3308 259° West 176 203 1,800 -1,210 Descending Los Angeles Center
Fri 06:10:58 PM 33.9553 -118.3808 265° West 163 188 500 -823 Descending Los Angeles Center
Fri 06:12:00 PM 33.9497 -118.4317 263° West 153 176 100 -387 Descending Los Angeles Center
Fri 06:13:00 PM 33.9425 -118.4081 90° East  Level Estimated

Login

Don't have an account? Register now (free) for customized features, flight alerts, and more!